Time;durP1;ratioP1;P1;durP2;ratioP2;P2;SDS_P1;SDS_P2;PMS_P1;PMS_P2;Temp;Humidity;BMP_temperature;BMP_pressure;BME280_temperature;BME280_humidity;BME280_pressure;Samples;Min_cycle;Max_cycle;Signal;HPM_P1;HPM_P2
2021/01/01 00:00:39;;;;;;;66.63;50.10;;;;;;;1.42;90.81;99193.84;5055391;28;20468;-68
2021/01/01 00:03:05;;;;;;;75.60;52.77;;;;;;;1.35;91.30;99200.50;5061518;28;20486;-68
2021/01/01 00:05:32;;;;;;;72.80;53.37;;;;;;;1.47;91.16;99204.06;5059786;28;20571;-68
2021/01/01 00:07:59;;;;;;;75.90;52.60;;;;;;;1.50;90.82;99209.94;5060150;28;20453;-68
2021/01/01 00:10:25;;;;;;;69.93;50.17;;;;;;;1.65;90.47;99207.16;5059711;28;20472;-68
2021/01/01 00:12:51;;;;;;;90.33;62.43;;;;;;;1.25;91.31;99204.72;5061487;28;20488;-67
2021/01/01 00:15:17;;;;;;;82.63;57.10;;;;;;;1.15;91.89;99206.28;5058629;28;20456;-67
2021/01/01 00:17:44;;;;;;;83.70;56.17;;;;;;;1.21;92.17;99211.16;5061099;28;20475;-67
2021/01/01 00:20:11;;;;;;;88.90;61.17;;;;;;;1.15;92.55;99201.03;5064585;28;20455;-67
2021/01/01 00:22:39;;;;;;;87.23;61.70;;;;;;;1.15;92.58;99211.56;5066683;28;20667;-67
2021/01/01 00:25:07;;;;;;;90.60;62.63;;;;;;;1.21;92.64;99209.34;5066458;28;20481;-67
2021/01/01 00:27:33;;;;;;;106.40;66.10;;;;;;;1.44;92.17;99217.44;5067289;28;20463;-67
2021/01/01 00:30:00;;;;;;;92.47;63.40;;;;;;;1.68;90.99;99210.44;5066835;28;20449;-67
2021/01/01 00:32:26;;;;;;;90.43;63.10;;;;;;;1.66;90.56;99217.59;5066120;28;20472;-67
2021/01/01 00:34:52;;;;;;;94.23;57.80;;;;;;;1.56;91.04;99216.56;5067912;28;20484;-67
2021/01/01 00:37:18;;;;;;;86.73;61.40;;;;;;;1.55;91.08;99227.25;5064642;28;20480;-67
2021/01/01 00:39:46;;;;;;;84.50;58.00;;;;;;;1.78;90.52;99220.31;5067673;28;20476;-67
2021/01/01 00:42:12;;;;;;;81.10;54.50;;;;;;;1.85;89.49;99218.91;5066132;28;20480;-67
2021/01/01 00:44:38;;;;;;;84.50;56.10;;;;;;;1.76;90.04;99220.41;5067190;28;20471;-67
2021/01/01 00:47:04;;;;;;;77.57;52.93;;;;;;;1.73;90.17;99218.00;5066109;28;20473;-67
2021/01/01 00:49:31;;;;;;;79.17;52.80;;;;;;;1.75;90.29;99220.53;5067517;28;20616;-67
2021/01/01 00:52:02;;;;;;;66.60;48.77;;;;;;;1.61;90.79;99217.06;5064758;28;20835;-67
2021/01/01 00:54:28;;;;;;;64.30;49.67;;;;;;;1.46;91.29;99220.81;5067569;28;20429;-67
2021/01/01 00:56:55;;;;;;;94.03;59.47;;;;;;;1.41;91.88;99212.41;5066066;28;21113;-67
2021/01/01 00:59:22;;;;;;;71.47;51.17;;;;;;;1.45;91.76;99216.50;5067141;28;20460;-67
2021/01/01 01:01:48;;;;;;;59.20;45.30;;;;;;;1.51;91.63;99221.31;5065744;28;20473;-67
2021/01/01 01:04:14;;;;;;;53.77;40.33;;;;;;;1.58;90.95;99216.47;5067406;28;20453;-67
2021/01/01 01:06:40;;;;;;;52.70;38.80;;;;;;;1.61;90.75;99217.06;5064599;28;20480;-67
2021/01/01 01:09:06;;;;;;;47.50;35.00;;;;;;;1.55;90.43;99207.00;5067480;28;20472;-67
2021/01/01 01:11:34;;;;;;;51.17;37.83;;;;;;;1.48;90.80;99214.47;5065986;28;20484;-67
2021/01/01 01:14:02;;;;;;;45.80;34.30;;;;;;;1.64;90.61;99218.66;5067232;28;20449;-67
2021/01/01 01:16:29;;;;;;;47.90;35.40;;;;;;;1.66;89.98;99219.41;5066076;28;20479;-67
2021/01/01 01:18:56;;;;;;;50.37;36.80;;;;;;;1.71;90.33;99219.91;5067328;28;20484;-67
2021/01/01 01:21:23;;;;;;;54.47;37.17;;;;;;;1.69;90.46;99219.19;5065062;28;20476;-67
2021/01/01 01:23:50;;;;;;;51.83;36.93;;;;;;;1.78;90.24;99229.06;5067577;28;20473;-67
2021/01/01 01:26:16;;;;;;;51.47;36.60;;;;;;;1.70;90.08;99223.47;5065799;28;20481;-67
2021/01/01 01:28:43;;;;;;;55.70;40.40;;;;;;;1.57;90.48;99227.97;5066973;28;20448;-67
2021/01/01 01:31:10;;;;;;;56.37;39.93;;;;;;;1.60;90.57;99230.38;5063505;28;20472;-67
2021/01/01 01:33:36;;;;;;;57.27;39.43;;;;;;;1.43;91.07;99239.47;5064622;28;20449;-67
2021/01/01 01:36:02;;;;;;;55.07;39.60;;;;;;;1.44;91.28;99227.97;5062131;28;20491;-67
2021/01/01 01:38:29;;;;;;;50.80;38.97;;;;;;;1.47;91.24;99236.50;5063815;28;20425;-67
2021/01/01 01:40:55;;;;;;;57.13;36.60;;;;;;;1.53;90.76;99235.25;5062745;28;20522;-67
2021/01/01 01:43:23;;;;;;;50.30;35.50;;;;;;;1.51;90.62;99234.47;5063857;28;20457;-67
2021/01/01 01:45:49;;;;;;;46.00;33.70;;;;;;;1.60;90.56;99239.13;5062438;28;20476;-67
2021/01/01 01:48:19;;;;;;;46.93;35.03;;;;;;;1.61;90.39;99234.69;5063911;28;20441;-67
2021/01/01 01:50:46;;;;;;;50.67;34.00;;;;;;;1.42;90.77;99235.97;5041715;28;20497;-67
2021/01/01 01:53:12;;;;;;;45.70;33.60;;;;;;;1.27;91.18;99244.97;5043877;28;20493;-68
2021/01/01 01:55:39;;;;;;;45.60;34.80;;;;;;;1.17;91.67;99246.53;5061980;28;20460;-68
2021/01/01 01:58:05;;;;;;;49.80;34.30;;;;;;;1.11;92.23;99246.03;5063024;28;20483;-67
2021/01/01 02:03:21;;;;;;;47.10;32.67;;;;;;;1.29;91.37;99248.34;5053300;28;20437;-67
2021/01/01 02:05:47;;;;;;;42.60;31.80;;;;;;;1.18;91.24;99243.81;5061243;28;20481;-67
2021/01/01 02:08:13;;;;;;;40.97;30.67;;;;;;;1.02;91.52;99244.00;5063318;28;20514;-68
2021/01/01 02:10:39;;;;;;;43.90;31.77;;;;;;;0.91;91.69;99244.72;5061931;28;20465;-68
2021/01/01 02:13:06;;;;;;;41.77;30.30;;;;;;;0.77;91.70;99249.25;5062858;28;21406;-68
2021/01/01 02:15:32;;;;;;;43.97;32.27;;;;;;;0.65;91.75;99245.66;5061790;28;21023;-68
2021/01/01 02:17:58;;;;;;;44.17;31.20;;;;;;;0.49;92.20;99253.72;5063681;28;20445;-68
2021/01/01 02:20:26;;;;;;;42.30;30.47;;;;;;;0.44;92.47;99259.28;5060967;28;20484;-68
2021/01/01 02:22:53;;;;;;;45.03;32.37;;;;;;;0.34;92.71;99251.13;5063003;28;20487;-67
2021/01/01 02:25:19;;;;;;;48.73;32.83;;;;;;;0.36;93.09;99269.44;5062111;28;20495;-67
2021/01/01 02:27:46;;;;;;;42.07;30.33;;;;;;;0.34;93.13;99260.81;5062405;28;20719;-67
2021/01/01 02:30:13;;;;;;;40.23;31.03;;;;;;;0.33;92.88;99269.63;5061789;28;20576;-67
2021/01/01 02:32:40;;;;;;;44.47;31.00;;;;;;;0.26;92.73;99274.47;5062772;28;20529;-67
2021/01/01 02:35:07;;;;;;;46.20;32.83;;;;;;;0.25;93.26;99270.16;5060771;28;20448;-67
2021/01/01 02:37:33;;;;;;;44.47;32.43;;;;;;;0.25;93.87;99285.91;5062160;28;20554;-67
2021/01/01 02:40:00;;;;;;;42.20;31.03;;;;;;;0.23;93.84;99289.59;5062966;28;20488;-67
2021/01/01 02:42:26;;;;;;;48.30;31.87;;;;;;;0.30;94.20;99281.22;5060658;28;20990;-67
2021/01/01 02:44:53;;;;;;;49.60;33.63;;;;;;;0.37;94.27;99284.28;5062923;28;20544;-67
2021/01/01 02:47:19;;;;;;;48.77;32.90;;;;;;;0.59;93.62;99281.09;5061594;28;20504;-67
2021/01/01 02:49:45;;;;;;;51.47;34.87;;;;;;;0.62;93.30;99274.78;5062048;28;20491;-67
2021/01/01 02:52:11;;;;;;;50.30;33.00;;;;;;;0.55;93.52;99282.22;5060827;28;20495;-67
2021/01/01 02:54:38;;;;;;;52.17;32.70;;;;;;;0.55;93.95;99279.59;5062880;28;20433;-67
2021/01/01 02:57:05;;;;;;;46.17;33.20;;;;;;;0.64;93.96;99279.00;5061030;28;20469;-67
2021/01/01 02:59:31;;;;;;;50.93;35.53;;;;;;;0.68;93.85;99277.03;5061999;28;20456;-67
2021/01/01 03:01:57;;;;;;;46.77;32.50;;;;;;;0.67;94.21;99270.91;5060391;28;20481;-67
2021/01/01 03:04:24;;;;;;;46.93;31.90;;;;;;;0.75;93.94;99270.41;5062574;28;20460;-67
2021/01/01 03:06:50;;;;;;;46.40;32.37;;;;;;;0.90;93.25;99271.16;5060165;28;20484;-67
2021/01/01 03:09:16;;;;;;;48.67;33.33;;;;;;;0.91;92.71;99270.22;5062357;28;20946;-67
2021/01/01 03:11:42;;;;;;;45.67;31.00;;;;;;;0.80;92.89;99270.06;5060749;28;20515;-67
2021/01/01 03:14:09;;;;;;;45.47;32.60;;;;;;;0.76;92.64;99277.34;5061712;28;20428;-67
2021/01/01 03:16:35;;;;;;;47.57;32.30;;;;;;;0.73;92.96;99272.31;5060859;28;20485;-67
2021/01/01 03:19:02;;;;;;;46.30;32.93;;;;;;;0.82;92.73;99274.31;5061627;28;20453;-67
2021/01/01 03:21:28;;;;;;;58.43;38.10;;;;;;;0.87;92.29;99276.66;5059890;28;20481;-67
2021/01/01 03:23:54;;;;;;;49.40;34.03;;;;;;;0.86;92.21;99272.31;5061848;28;20457;-67
2021/01/01 03:26:20;;;;;;;46.90;32.43;;;;;;;0.87;92.12;99268.75;5060777;28;20465;-67
2021/01/01 03:28:46;;;;;;;50.13;34.80;;;;;;;0.94;91.80;99272.66;5061289;28;20492;-67
2021/01/01 03:31:13;;;;;;;53.17;33.50;;;;;;;0.93;91.80;99268.31;5060569;28;20472;-66
2021/01/01 03:33:39;;;;;;;52.17;33.67;;;;;;;1.03;91.27;99264.13;5061872;28;20465;-67
2021/01/01 03:36:06;;;;;;;50.60;32.20;;;;;;;1.10;91.41;99268.00;5059737;28;20946;-67
2021/01/01 03:38:32;;;;;;;51.67;32.30;;;;;;;1.13;91.28;99269.63;5061363;28;20516;-67
2021/01/01 03:40:59;;;;;;;51.57;31.13;;;;;;;1.07;91.36;99267.38;5059923;28;20485;-67
2021/01/01 03:43:25;;;;;;;50.10;31.93;;;;;;;0.95;91.68;99276.94;5061494;28;20487;-67
2021/01/01 03:45:51;;;;;;;51.73;30.50;;;;;;;0.96;92.20;99280.44;5060256;28;20679;-67
2021/01/01 03:48:18;;;;;;;46.63;32.10;;;;;;;0.89;92.36;99280.00;5061771;28;20543;-67
2021/01/01 03:50:44;;;;;;;45.73;29.13;;;;;;;0.78;92.67;99278.06;5059732;28;20468;-67
2021/01/01 03:53:11;;;;;;;52.70;31.77;;;;;;;1.04;91.83;99278.97;5061726;28;20523;-66
2021/01/01 03:55:37;;;;;;;48.30;30.93;;;;;;;1.12;91.49;99276.66;5060665;28;20530;-67
2021/01/01 03:58:03;;;;;;;47.93;29.90;;;;;;;1.10;91.24;99275.91;5060531;28;20560;-67
2021/01/01 04:00:29;;;;;;;42.63;28.37;;;;;;;1.08;91.88;99272.53;5059866;28;20485;-66
2021/01/01 04:02:55;;;;;;;44.77;31.37;;;;;;;1.06;91.51;99269.19;5061447;28;20766;-67
2021/01/01 04:05:22;;;;;;;46.60;30.03;;;;;;;1.06;91.43;99270.94;5059127;28;20500;-67
2021/01/01 04:07:49;;;;;;;43.30;27.87;;;;;;;1.10;91.82;99273.28;5060735;28;20460;-67
2021/01/01 04:10:15;;;;;;;43.07;29.50;;;;;;;1.15;92.06;99280.00;5060205;28;20464;-67
2021/01/01 04:12:41;;;;;;;43.23;28.87;;;;;;;1.24;91.46;99279.41;5060424;28;20515;-67
2021/01/01 04:15:08;;;;;;;44.23;27.60;;;;;;;1.04;91.19;99273.72;5059815;28;20540;-67
2021/01/01 04:17:34;;;;;;;44.50;27.80;;;;;;;0.98;91.38;99273.28;5061429;28;20460;-67
2021/01/01 04:20:01;;;;;;;39.10;26.83;;;;;;;0.99;91.72;99278.44;5060369;28;20531;-67
2021/01/01 04:22:28;;;;;;;42.20;27.43;;;;;;;0.94;91.97;99281.38;5059321;28;20495;-67
2021/01/01 04:24:54;;;;;;;46.23;28.47;;;;;;;1.03;92.03;99281.72;5061175;28;20441;-67
2021/01/01 04:27:20;;;;;;;44.57;27.70;;;;;;;0.99;92.14;99280.22;5059268;28;20500;-67
2021/01/01 04:29:46;;;;;;;38.23;26.20;;;;;;;1.05;92.21;99279.81;5060261;28;20495;-67
2021/01/01 04:32:12;;;;;;;40.67;25.60;;;;;;;0.99;92.30;99278.44;5058769;28;20505;-67
2021/01/01 04:34:38;;;;;;;39.63;24.80;;;;;;;1.05;92.34;99283.28;5059656;28;20484;-67
2021/01/01 04:37:05;;;;;;;40.60;27.30;;;;;;;1.04;92.32;99286.88;5058532;28;20484;-67
2021/01/01 04:39:32;;;;;;;39.27;24.17;;;;;;;1.18;91.52;99285.06;5060926;28;20471;-67
2021/01/01 04:41:58;;;;;;;44.10;26.53;;;;;;;1.31;90.21;99288.56;5060679;28;20571;-67
2021/01/01 04:44:25;;;;;;;41.27;25.90;;;;;;;1.32;89.24;99285.00;5062119;28;20493;-67
2021/01/01 04:46:52;;;;;;;41.20;25.80;;;;;;;1.30;89.66;99284.22;5060831;28;20497;-67
2021/01/01 04:49:18;;;;;;;43.47;27.13;;;;;;;1.16;90.07;99279.06;5061984;28;20462;-67
2021/01/01 04:51:44;;;;;;;41.07;27.03;;;;;;;1.12;90.22;99284.53;5059957;28;20504;-67
2021/01/01 04:54:11;;;;;;;36.00;23.37;;;;;;;0.85;90.93;99289.03;5062401;28;20468;-67
2021/01/01 04:56:45;;;;;;;40.40;23.47;;;;;;;0.77;91.10;99288.72;5060314;28;20809;-67
2021/01/01 04:59:14;;;;;;;34.90;22.60;;;;;;;0.63;91.53;99294.91;5061627;28;20455;-67
2021/01/01 05:01:41;;;;;;;37.10;25.27;;;;;;;0.47;91.89;99295.91;5060509;28;20476;-67
2021/01/01 05:04:07;;;;;;;39.27;27.30;;;;;;;0.50;92.01;99293.03;5061569;28;20445;-67
2021/01/01 05:06:34;;;;;;;37.53;24.70;;;;;;;0.24;92.33;99301.78;5062008;28;20480;-67
2021/01/01 05:09:00;;;;;;;37.03;24.07;;;;;;;0.22;92.13;99299.25;5065370;28;20514;-67
2021/01/01 05:11:27;;;;;;;37.77;23.73;;;;;;;0.05;92.09;99302.13;5064151;28;20496;-67
2021/01/01 05:13:59;;;;;;;41.27;26.20;;;;;;;-0.16;92.44;99305.16;5065833;28;20859;-67
2021/01/01 05:16:25;;;;;;;40.40;24.93;;;;;;;-0.20;93.00;99309.75;5063599;28;20510;-67
2021/01/01 05:18:52;;;;;;;39.27;25.63;;;;;;;-0.21;93.05;99313.34;5065685;28;20485;-67
2021/01/01 05:21:22;;;;;;;37.30;23.67;;;;;;;-0.27;93.06;99305.81;5063880;28;20472;-67
2021/01/01 05:23:50;;;;;;;36.27;22.73;;;;;;;-0.24;93.21;99310.88;5065184;28;20448;-67
2021/01/01 05:26:16;;;;;;;40.37;24.80;;;;;;;-0.33;93.14;99308.84;5063658;28;20551;-67
2021/01/01 05:28:52;;;;;;;36.63;23.53;;;;;;;-0.15;92.69;99319.16;5065841;28;20433;-67
2021/01/01 05:31:20;;;;;;;35.17;23.93;;;;;;;-0.31;92.57;99316.59;5063708;28;20464;-67
2021/01/01 05:33:51;;;;;;;35.70;23.50;;;;;;;-0.42;92.66;99320.75;5065462;28;20519;-67
2021/01/01 05:36:33;;;;;;;38.00;21.70;;;;;;;-0.55;92.89;99322.44;5063297;28;20539;-67
2021/01/01 05:39:00;;;;;;;36.67;22.50;;;;;;;-0.63;93.08;99322.03;5064576;28;20469;-67
2021/01/01 05:41:31;;;;;;;31.63;20.70;;;;;;;-0.59;93.31;99323.53;5063615;28;20494;-67
2021/01/01 05:44:11;;;;;;;33.70;21.87;;;;;;;-0.79;93.54;99320.34;5065025;28;20487;-67
2021/01/01 05:46:39;;;;;;;41.17;21.37;;;;;;;-0.76;93.49;99317.53;5063570;28;20878;-67
2021/01/01 05:49:05;;;;;;;44.00;25.17;;;;;;;-0.79;93.68;99322.97;5064734;28;20487;-67
2021/01/01 05:51:31;;;;;;;37.40;22.43;;;;;;;-0.90;93.71;99322.78;5062868;28;20492;-67
2021/01/01 05:54:11;;;;;;;32.00;20.00;;;;;;;-0.84;93.73;99325.00;5064480;28;20465;-67
2021/01/01 05:56:40;;;;;;;34.13;22.20;;;;;;;-0.82;93.77;99336.25;5063156;28;20954;-66
2021/01/01 05:59:09;;;;;;;34.53;20.70;;;;;;;-0.89;93.81;99334.94;5064729;28;20456;-67
2021/01/01 06:01:36;;;;;;;45.73;25.23;;;;;;;-0.89;93.59;99324.44;5062834;28;20690;-67
2021/01/01 06:04:03;;;;;;;35.37;22.63;;;;;;;-0.98;94.09;99340.75;5064789;28;20529;-67
2021/01/01 06:06:32;;;;;;;39.63;24.87;;;;;;;-0.92;94.06;99335.13;5062862;28;20472;-67
2021/01/01 06:09:03;;;;;;;44.10;26.37;;;;;;;-0.92;94.06;99343.00;5064359;28;20536;-66
2021/01/01 06:11:30;;;;;;;51.90;32.37;;;;;;;-0.92;94.01;99347.41;5062872;28;20511;-66
2021/01/01 06:13:58;;;;;;;47.33;28.80;;;;;;;-0.90;93.95;99343.75;5065022;28;20516;-66
2021/01/01 06:16:26;;;;;;;38.83;24.73;;;;;;;-0.95;94.07;99351.06;5062370;28;20911;-66
2021/01/01 06:18:57;;;;;;;40.40;26.77;;;;;;;-0.99;94.20;99346.91;5063875;28;20441;-67
2021/01/01 06:21:33;;;;;;;40.60;24.60;;;;;;;-1.00;94.09;99350.47;5063043;28;20495;-66
2021/01/01 06:24:01;;;;;;;41.73;26.13;;;;;;;-0.88;93.66;99351.53;5063720;28;20865;-66
2021/01/01 06:26:27;;;;;;;43.77;26.10;;;;;;;-1.01;93.44;99354.03;5062664;28;20468;-66
2021/01/01 06:28:54;;;;;;;39.77;25.20;;;;;;;-1.20;93.67;99354.25;5064235;28;20473;-66
2021/01/01 06:31:20;;;;;;;37.93;24.43;;;;;;;-1.18;93.88;99358.47;5062541;28;20568;-66
2021/01/01 06:33:47;;;;;;;43.93;25.80;;;;;;;-1.11;93.86;99369.47;5063558;28;20916;-66
2021/01/01 06:36:37;;;;;;;43.40;26.20;;;;;;;-1.02;93.80;99368.94;5062613;28;20504;-67
2021/01/01 06:39:04;;;;;;;37.33;23.93;;;;;;;-1.14;94.17;99372.25;5043569;28;20496;-66
2021/01/01 06:41:44;;;;;;;40.57;25.23;;;;;;;-1.16;94.33;99377.59;5051829;28;20477;-66
2021/01/01 06:44:10;;;;;;;40.17;24.60;;;;;;;-1.16;94.57;99379.38;5064125;28;20437;-66
2021/01/01 06:46:37;;;;;;;37.83;24.80;;;;;;;-1.14;94.30;99382.75;5062254;28;20568;-66
2021/01/01 06:49:05;;;;;;;41.27;24.70;;;;;;;-1.07;94.25;99385.88;5063914;28;20860;-66
2021/01/01 06:51:31;;;;;;;41.37;23.80;;;;;;;-1.08;93.88;99390.25;5061745;28;20504;-66
2021/01/01 06:54:10;;;;;;;39.73;24.07;;;;;;;-1.22;93.80;99388.41;5063177;28;20449;-66
2021/01/01 06:56:38;;;;;;;36.13;22.73;;;;;;;-1.23;93.87;99396.38;5062160;28;20545;-66
2021/01/01 06:59:08;;;;;;;40.13;22.70;;;;;;;-1.15;93.77;99400.28;5063253;28;20480;-66
2021/01/01 07:01:40;;;;;;;35.40;22.60;;;;;;;-1.10;93.46;99393.91;5062054;28;20492;-66
2021/01/01 07:04:06;;;;;;;32.00;21.23;;;;;;;-1.28;93.61;99401.91;5063194;28;20523;-66
2021/01/01 07:06:40;;;;;;;44.10;23.97;;;;;;;-1.36;94.05;99393.59;5061937;28;20480;-66
2021/01/01 07:09:08;;;;;;;40.43;25.27;;;;;;;-1.15;94.04;99399.41;5063042;28;20503;-66
2021/01/01 07:11:39;;;;;;;36.43;22.40;;;;;;;-1.16;93.83;99402.97;5061211;28;20477;-66
2021/01/01 07:14:07;;;;;;;39.77;25.10;;;;;;;-1.22;94.26;99414.66;5063082;28;20473;-66
2021/01/01 07:16:35;;;;;;;38.77;22.87;;;;;;;-1.36;94.42;99404.94;5061674;28;20496;-66
2021/01/01 07:19:02;;;;;;;38.20;22.60;;;;;;;-1.31;94.61;99417.78;5062548;28;20465;-66
2021/01/01 07:21:28;;;;;;;37.57;22.30;;;;;;;-1.15;94.97;99416.03;5061795;28;20539;-66
2021/01/01 07:23:54;;;;;;;36.70;23.30;;;;;;;-1.12;94.80;99424.63;5062482;28;20469;-66
2021/01/01 07:26:26;;;;;;;39.03;23.53;;;;;;;-0.87;95.01;99418.81;5060866;28;20480;-66
2021/01/01 07:28:52;;;;;;;40.00;24.83;;;;;;;-0.80;95.03;99428.03;5061871;28;20441;-66
2021/01/01 07:31:19;;;;;;;38.57;24.37;;;;;;;-0.64;94.56;99428.00;5061381;28;20507;-66
2021/01/01 07:33:46;;;;;;;38.50;23.30;;;;;;;-0.55;94.28;99429.25;5063089;28;20480;-66
2021/01/01 07:36:13;;;;;;;42.93;25.10;;;;;;;-0.53;94.20;99435.25;5060820;28;20508;-66
2021/01/01 07:38:40;;;;;;;38.47;23.90;;;;;;;-0.44;94.23;99429.44;5061738;28;20850;-66
2021/01/01 07:41:07;;;;;;;39.90;24.03;;;;;;;-0.41;93.78;99437.97;5061179;28;20982;-66
2021/01/01 07:43:34;;;;;;;36.37;22.40;;;;;;;-0.38;93.93;99440.44;5062341;28;20437;-66
2021/01/01 07:46:02;;;;;;;39.50;23.90;;;;;;;-0.20;93.40;99440.25;5060201;28;20476;-66
2021/01/01 07:48:28;;;;;;;40.33;23.10;;;;;;;-0.20;93.21;99433.22;5062469;28;20445;-66
2021/01/01 07:50:57;;;;;;;42.43;23.60;;;;;;;-0.16;92.74;99440.91;5060260;28;20480;-66
2021/01/01 07:53:23;;;;;;;36.30;22.47;;;;;;;-0.16;92.53;99433.03;5061817;28;21019;-66
2021/01/01 07:55:49;;;;;;;39.40;23.60;;;;;;;-0.08;92.12;99439.53;5060794;28;20484;-66
2021/01/01 07:58:16;;;;;;;39.33;23.30;;;;;;;0.03;91.78;99444.13;5061917;28;20463;-65
2021/01/01 08:00:44;;;;;;;37.27;22.10;;;;;;;-0.09;92.13;99448.31;5060932;28;20532;-65
2021/01/01 08:03:11;;;;;;;39.03;23.40;;;;;;;-0.12;92.54;99461.66;5062485;28;20746;-65
2021/01/01 08:05:37;;;;;;;37.73;23.90;;;;;;;-0.03;91.76;99447.97;5060516;28;20500;-65
2021/01/01 08:08:13;;;;;;;47.13;26.60;;;;;;;0.08;92.22;99452.56;5061093;28;20476;-65
2021/01/01 08:10:40;;;;;;;43.90;25.33;;;;;;;-0.03;92.74;99463.72;5060626;28;20544;-65
2021/01/01 08:13:12;;;;;;;51.50;28.17;;;;;;;-0.05;93.08;99454.28;5062401;28;20480;-65
2021/01/01 08:15:39;;;;;;;48.03;26.30;;;;;;;-0.08;93.42;99455.28;5060759;28;21688;-66
2021/01/01 08:18:10;;;;;;;53.73;26.77;;;;;;;-0.03;93.47;99452.38;5062141;28;20526;-66
2021/01/01 08:20:37;;;;;;;48.33;26.20;;;;;;;0.03;93.62;99454.63;5060811;28;20468;-65
2021/01/01 08:23:07;;;;;;;45.50;26.87;;;;;;;0.11;93.13;99455.00;5060549;28;20473;-66
2021/01/01 08:25:34;;;;;;;51.00;27.20;;;;;;;0.15;92.68;99466.19;5060681;28;20865;-64
2021/01/01 08:28:01;;;;;;;59.97;29.20;;;;;;;0.39;92.08;99465.63;5062036;28;20452;-66
2021/01/01 08:30:27;;;;;;;53.20;29.80;;;;;;;0.30;92.11;99469.66;5060146;28;20500;-66
2021/01/01 08:32:53;;;;;;;52.70;28.40;;;;;;;0.41;92.40;99469.81;5062219;28;20597;-66
2021/01/01 08:35:21;;;;;;;48.47;28.13;;;;;;;0.49;92.05;99469.38;5057036;28;20461;-65
2021/01/01 08:37:47;;;;;;;45.43;24.93;;;;;;;0.55;92.36;99479.50;5057665;28;20758;-65
2021/01/01 08:40:14;;;;;;;46.47;26.90;;;;;;;0.63;92.35;99474.59;5061442;28;20525;-65
2021/01/01 08:42:41;;;;;;;53.47;27.00;;;;;;;0.81;91.57;99472.56;5066225;28;20586;-66
2021/01/01 08:45:09;;;;;;;37.50;21.60;;;;;;;2.42;95.14;99481.22;5064018;28;20989;-66
2021/01/01 08:47:43;;;;;;;46.03;27.37;;;;;;;2.41;88.54;99476.88;5056791;28;20448;-66
2021/01/01 08:50:28;;;;;;;44.63;25.40;;;;;;;2.01;88.75;99483.09;5062568;28;21092;-65
2021/01/01 08:52:58;;;;;;;46.13;27.13;;;;;;;2.75;85.88;99474.50;5064384;28;20905;-66
2021/01/01 08:55:24;;;;;;;43.73;26.40;;;;;;;2.14;86.12;99479.66;5063676;28;20489;-66
2021/01/01 08:57:51;;;;;;;41.77;25.60;;;;;;;1.88;86.28;99477.84;5061684;28;20465;-67
2021/01/01 09:00:22;;;;;;;43.13;24.77;;;;;;;1.83;86.62;99484.38;5062535;28;20499;-66
2021/01/01 09:02:56;;;;;;;40.60;24.47;;;;;;;1.68;86.46;99478.34;5065558;28;20453;-66
2021/01/01 09:05:25;;;;;;;36.43;24.43;;;;;;;1.92;87.79;99485.53;5063700;28;20556;-67
2021/01/01 09:08:08;;;;;;;46.60;27.70;;;;;;;2.43;84.50;99482.88;5060509;28;21056;-67
2021/01/01 09:10:34;;;;;;;45.30;26.70;;;;;;;3.51;81.41;99494.47;5063434;28;20520;-67
2021/01/01 09:13:14;;;;;;;41.87;26.30;;;;;;;4.72;76.35;99494.88;5064481;28;20512;-68
2021/01/01 09:15:40;;;;;;;35.83;24.10;;;;;;;5.37;72.19;99488.84;5062258;28;20547;-68
2021/01/01 09:18:07;;;;;;;37.83;24.73;;;;;;;6.24;69.79;99493.97;5064113;28;20456;-68
2021/01/01 09:20:33;;;;;;;41.23;26.47;;;;;;;7.19;64.47;99484.78;5062930;28;20472;-68
2021/01/01 09:23:01;;;;;;;41.80;25.70;;;;;;;7.12;65.00;99494.28;5063299;28;20452;-68
2021/01/01 09:25:29;;;;;;;34.17;22.43;;;;;;;7.44;64.15;99494.03;5062910;28;20480;-68
2021/01/01 09:27:55;;;;;;;31.57;21.80;;;;;;;8.30;61.92;99495.91;5052333;28;20448;-69
2021/01/01 09:30:23;;;;;;;32.70;22.20;;;;;;;8.93;58.79;99497.91;5061937;28;20480;-69
2021/01/01 09:32:51;;;;;;;29.80;22.90;;;;;;;9.10;58.22;99493.63;5064235;28;20504;-68
2021/01/01 09:35:18;;;;;;;36.10;23.90;;;;;;;8.77;58.74;99503.06;5062423;28;20457;-69
2021/01/01 09:37:48;;;;;;;33.07;21.50;;;;;;;7.54;61.50;99505.50;5062224;28;20527;-69
2021/01/01 09:40:15;;;;;;;38.30;26.00;;;;;;;6.17;66.90;99501.59;5063031;28;20483;-68
2021/01/01 09:42:42;;;;;;;37.37;24.40;;;;;;;5.36;69.46;99514.50;5064015;28;20488;-67
2021/01/01 09:45:09;;;;;;;35.80;23.90;;;;;;;5.32;71.21;99515.72;5060515;28;20448;-67
2021/01/01 09:47:36;;;;;;;41.20;25.63;;;;;;;5.69;70.71;99512.69;5062269;28;20460;-67
2021/01/01 09:50:03;;;;;;;38.23;24.83;;;;;;;5.27;71.45;99515.25;5063229;28;20445;-67
2021/01/01 09:52:29;;;;;;;36.50;22.80;;;;;;;5.35;70.04;99510.16;5060646;28;20480;-68
2021/01/01 09:54:55;;;;;;;32.77;22.90;;;;;;;5.55;70.00;99519.13;5063801;28;20492;-67
2021/01/01 09:57:21;;;;;;;36.10;23.53;;;;;;;6.05;68.02;99513.25;5061683;28;20492;-67
2021/01/01 09:59:48;;;;;;;33.03;21.83;;;;;;;6.46;67.07;99513.34;5062769;28;20464;-67
2021/01/01 10:02:14;;;;;;;34.50;21.90;;;;;;;5.82;68.15;99523.97;5061373;28;20465;-67
2021/01/01 10:04:41;;;;;;;38.40;24.67;;;;;;;5.25;70.10;99528.63;5062403;28;21012;-67
2021/01/01 10:07:07;;;;;;;33.50;22.77;;;;;;;5.03;71.10;99534.78;5060436;28;20472;-67
2021/01/01 10:09:33;;;;;;;37.97;23.30;;;;;;;4.20;74.05;99519.28;5062832;28;20498;-67
2021/01/01 10:12:03;;;;;;;31.23;21.53;;;;;;;3.86;74.76;99529.78;5058993;28;20504;-67
2021/01/01 10:14:30;;;;;;;35.30;21.60;;;;;;;3.21;78.34;99534.53;5062571;28;20453;-67
2021/01/01 10:16:57;;;;;;;34.27;23.27;;;;;;;3.14;78.48;99536.81;5061537;28;20481;-67
2021/01/01 10:19:23;;;;;;;37.10;22.60;;;;;;;3.35;77.94;99534.38;5063281;28;20461;-67
2021/01/01 10:21:49;;;;;;;36.67;22.77;;;;;;;3.81;76.85;99542.53;5061225;28;20536;-67
2021/01/01 10:24:15;;;;;;;34.83;21.93;;;;;;;3.84;76.56;99537.00;5062388;28;20453;-67
2021/01/01 10:26:47;;;;;;;40.30;22.60;;;;;;;4.35;74.50;99544.56;5061189;28;20505;-67
2021/01/01 10:29:13;;;;;;;37.20;22.77;;;;;;;5.35;71.81;99551.75;5062074;28;20444;-67
2021/01/01 10:31:42;;;;;;;39.60;23.23;;;;;;;5.68;69.11;99542.84;5061374;28;20916;-66
2021/01/01 10:34:09;;;;;;;34.40;20.80;;;;;;;4.38;73.47;99541.69;5062399;28;20499;-67
2021/01/01 10:36:35;;;;;;;39.97;22.53;;;;;;;3.32;77.24;99550.47;5060317;28;20488;-67
2021/01/01 10:39:02;;;;;;;40.27;24.67;;;;;;;3.13;79.16;99543.03;5059868;28;20479;-67
2021/01/01 10:41:28;;;;;;;36.97;21.43;;;;;;;3.34;79.09;99547.72;5061425;28;20479;-67
2021/01/01 10:43:54;;;;;;;38.40;24.60;;;;;;;3.84;77.65;99548.41;5061725;28;20441;-67
2021/01/01 10:46:20;;;;;;;42.63;25.10;;;;;;;4.02;76.17;99538.25;5061008;28;20469;-66
2021/01/01 10:48:46;;;;;;;33.33;21.30;;;;;;;4.28;74.80;99548.66;5062161;28;20453;-66
2021/01/01 10:51:21;;;;;;;35.10;21.47;;;;;;;4.89;73.19;99543.00;5059665;28;20507;-67
2021/01/01 10:53:47;;;;;;;36.20;21.60;;;;;;;6.29;68.22;99550.16;5059937;28;20478;-67
2021/01/01 10:56:20;;;;;;;29.53;20.67;;;;;;;6.63;66.78;99536.66;5060937;28;20684;-67
2021/01/01 10:58:46;;;;;;;31.43;20.47;;;;;;;5.25;69.84;99547.19;5059254;28;20453;-67
2021/01/01 11:01:12;;;;;;;30.47;19.60;;;;;;;4.71;73.23;99550.63;5060965;28;20490;-67
2021/01/01 11:03:38;;;;;;;30.03;19.27;;;;;;;3.97;75.88;99545.69;5062319;28;20490;-67
2021/01/01 11:06:05;;;;;;;28.67;18.37;;;;;;;4.22;74.99;99549.97;5059574;28;20473;-67
2021/01/01 11:08:32;;;;;;;33.77;19.63;;;;;;;4.48;73.33;99547.97;5060960;28;20472;-67
2021/01/01 11:10:58;;;;;;;30.80;19.90;;;;;;;4.39;73.53;99539.88;5060806;28;21006;-66
2021/01/01 11:13:24;;;;;;;30.53;20.10;;;;;;;3.71;75.98;99545.81;5061010;28;20473;-67
2021/01/01 12:22:15;;;;;;;29.77;18.53;;;;;;;2.92;78.11;99518.16;4977914;28;20480;-69
2021/01/01 12:24:47;;;;;;;30.40;19.43;;;;;;;2.96;78.62;99515.19;4964013;28;20471;-68
2021/01/01 12:27:16;;;;;;;31.00;18.53;;;;;;;2.95;79.12;99510.88;4976509;28;20516;-69
2021/01/01 12:29:43;;;;;;;31.30;18.70;;;;;;;2.97;79.39;99514.25;4979646;28;20445;-68
2021/01/01 12:32:09;;;;;;;30.33;18.37;;;;;;;2.80;80.05;99515.44;4975727;28;20511;-67
2021/01/01 12:34:36;;;;;;;32.23;21.30;;;;;;;2.93;78.80;99519.84;4977754;28;20555;-66